sensor_id;sensor_type;location;lat;lon;timestamp;temperature;humidity
86242;DHT22;76911;51.784;4.658;2024-03-08T00:00:16;4.94;77.71
86242;DHT22;76911;51.784;4.658;2024-03-08T00:02:45;4.87;77.81
86242;DHT22;76911;51.784;4.658;2024-03-08T00:05:12;5.12;77.14
86242;DHT22;76911;51.784;4.658;2024-03-08T00:07:39;4.99;77.47
86242;DHT22;76911;51.784;4.658;2024-03-08T00:10:10;5.03;76.99
86242;DHT22;76911;51.784;4.658;2024-03-08T00:12:39;5.06;76.91
86242;DHT22;76911;51.784;4.658;2024-03-08T00:15:12;5.07;76.74
86242;DHT22;76911;51.784;4.658;2024-03-08T00:17:43;5.01;76.67
86242;DHT22;76911;51.784;4.658;2024-03-08T00:20:10;5.01;76.79
86242;DHT22;76911;51.784;4.658;2024-03-08T00:22:36;5.09;76.57
86242;DHT22;76911;51.784;4.658;2024-03-08T00:25:06;5.12;76.52
86242;DHT22;76911;51.784;4.658;2024-03-08T00:27:34;5.01;76.83
86242;DHT22;76911;51.784;4.658;2024-03-08T00:30:00;4.99;76.90
86242;DHT22;76911;51.784;4.658;2024-03-08T00:32:26;4.90;77.01
86242;DHT22;76911;51.784;4.658;2024-03-08T00:34:55;4.90;77.05
86242;DHT22;76911;51.784;4.658;2024-03-08T00:37:21;4.94;76.67
86242;DHT22;76911;51.784;4.658;2024-03-08T00:39:48;4.87;76.93
86242;DHT22;76911;51.784;4.658;2024-03-08T00:42:15;4.75;76.99
86242;DHT22;76911;51.784;4.658;2024-03-08T00:44:40;4.82;77.04
86242;DHT22;76911;51.784;4.658;2024-03-08T00:47:06;4.82;77.08
86242;DHT22;76911;51.784;4.658;2024-03-08T00:49:31;4.73;77.17
86242;DHT22;76911;51.784;4.658;2024-03-08T00:51:57;4.79;76.95
86242;DHT22;76911;51.784;4.658;2024-03-08T00:54:23;4.80;76.77
86242;DHT22;76911;51.784;4.658;2024-03-08T00:56:48;4.71;77.13
86242;DHT22;76911;51.784;4.658;2024-03-08T00:59:14;4.69;77.12
86242;DHT22;76911;51.784;4.658;2024-03-08T01:01:40;4.66;77.05
86242;DHT22;76911;51.784;4.658;2024-03-08T01:04:06;4.66;77.04
86242;DHT22;76911;51.784;4.658;2024-03-08T01:06:33;4.55;77.31
86242;DHT22;76911;51.784;4.658;2024-03-08T01:08:59;4.69;76.94
86242;DHT22;76911;51.784;4.658;2024-03-08T01:11:24;4.69;76.76
86242;DHT22;76911;51.784;4.658;2024-03-08T01:13:50;4.51;77.23
86242;DHT22;76911;51.784;4.658;2024-03-08T01:16:16;4.46;77.48
86242;DHT22;76911;51.784;4.658;2024-03-08T01:18:43;4.55;76.98
86242;DHT22;76911;51.784;4.658;2024-03-08T01:21:09;4.52;76.85
86242;DHT22;76911;51.784;4.658;2024-03-08T01:23:34;4.48;77.09
86242;DHT22;76911;51.784;4.658;2024-03-08T01:26:00;4.51;76.99
86242;DHT22;76911;51.784;4.658;2024-03-08T01:28:28;4.52;76.84
86242;DHT22;76911;51.784;4.658;2024-03-08T01:30:53;4.44;77.00
86242;DHT22;76911;51.784;4.658;2024-03-08T01:33:26;4.41;77.00
86242;DHT22;76911;51.784;4.658;2024-03-08T01:35:52;4.44;76.94
86242;DHT22;76911;51.784;4.658;2024-03-08T01:38:19;4.33;77.25
86242;DHT22;76911;51.784;4.658;2024-03-08T01:40:46;4.31;76.77
86242;DHT22;76911;51.784;4.658;2024-03-08T01:43:20;4.28;76.97
86242;DHT22;76911;51.784;4.658;2024-03-08T01:45:46;4.27;77.20
86242;DHT22;76911;51.784;4.658;2024-03-08T01:48:13;4.42;76.30
86242;DHT22;76911;51.784;4.658;2024-03-08T01:50:40;4.40;76.70
86242;DHT22;76911;51.784;4.658;2024-03-08T01:53:07;4.35;76.41
86242;DHT22;76911;51.784;4.658;2024-03-08T01:55:34;4.14;77.25
86242;DHT22;76911;51.784;4.658;2024-03-08T01:58:02;4.27;76.48
86242;DHT22;76911;51.784;4.658;2024-03-08T02:00:29;4.27;76.48
86242;DHT22;76911;51.784;4.658;2024-03-08T02:02:57;4.24;76.31
86242;DHT22;76911;51.784;4.658;2024-03-08T02:05:22;4.30;76.26
86242;DHT22;76911;51.784;4.658;2024-03-08T02:07:49;4.18;76.43
86242;DHT22;76911;51.784;4.658;2024-03-08T02:10:15;4.27;76.02
86242;DHT22;76911;51.784;4.658;2024-03-08T02:12:41;4.25;75.73
86242;DHT22;76911;51.784;4.658;2024-03-08T02:15:07;4.20;75.75
86242;DHT22;76911;51.784;4.658;2024-03-08T02:17:33;4.27;75.67
86242;DHT22;76911;51.784;4.658;2024-03-08T02:20:02;4.14;75.78
86242;DHT22;76911;51.784;4.658;2024-03-08T02:22:30;4.18;75.52
86242;DHT22;76911;51.784;4.658;2024-03-08T02:24:58;4.14;75.58
86242;DHT22;76911;51.784;4.658;2024-03-08T02:27:27;4.10;75.81
86242;DHT22;76911;51.784;4.658;2024-03-08T02:29:57;4.17;75.27
86242;DHT22;76911;51.784;4.658;2024-03-08T02:32:26;4.14;75.29
86242;DHT22;76911;51.784;4.658;2024-03-08T02:34:56;4.11;75.12
86242;DHT22;76911;51.784;4.658;2024-03-08T02:37:21;4.07;75.34
86242;DHT22;76911;51.784;4.658;2024-03-08T02:39:47;4.04;75.11
86242;DHT22;76911;51.784;4.658;2024-03-08T02:42:12;3.97;75.71
86242;DHT22;76911;51.784;4.658;2024-03-08T02:44:42;4.01;75.18
86242;DHT22;76911;51.784;4.658;2024-03-08T02:47:09;4.01;75.32
86242;DHT22;76911;51.784;4.658;2024-03-08T02:49:35;4.04;75.34
86242;DHT22;76911;51.784;4.658;2024-03-08T02:52:03;3.90;75.95
86242;DHT22;76911;51.784;4.658;2024-03-08T02:54:30;4.03;75.38
86242;DHT22;76911;51.784;4.658;2024-03-08T02:56:56;4.14;74.67
86242;DHT22;76911;51.784;4.658;2024-03-08T02:59:21;3.96;75.16
86242;DHT22;76911;51.784;4.658;2024-03-08T03:01:47;3.94;75.81
86242;DHT22;76911;51.784;4.658;2024-03-08T03:04:12;3.96;75.21
86242;DHT22;76911;51.784;4.658;2024-03-08T03:06:38;3.94;75.29
86242;DHT22;76911;51.784;4.658;2024-03-08T03:09:04;3.86;75.51
86242;DHT22;76911;51.784;4.658;2024-03-08T03:11:31;3.93;75.45
86242;DHT22;76911;51.784;4.658;2024-03-08T03:13:57;3.76;75.75
86242;DHT22;76911;51.784;4.658;2024-03-08T03:16:23;3.75;75.74
86242;DHT22;76911;51.784;4.658;2024-03-08T03:18:48;3.72;75.70
86242;DHT22;76911;51.784;4.658;2024-03-08T03:21:14;3.83;75.14
86242;DHT22;76911;51.784;4.658;2024-03-08T03:23:40;3.85;75.29
86242;DHT22;76911;51.784;4.658;2024-03-08T03:26:08;3.82;75.13
86242;DHT22;76911;51.784;4.658;2024-03-08T03:28:34;3.69;75.44
86242;DHT22;76911;51.784;4.658;2024-03-08T03:30:59;3.66;75.53
86242;DHT22;76911;51.784;4.658;2024-03-08T03:33:26;3.75;75.38
86242;DHT22;76911;51.784;4.658;2024-03-08T03:35:52;3.60;75.43
86242;DHT22;76911;51.784;4.658;2024-03-08T03:38:18;3.70;75.21
86242;DHT22;76911;51.784;4.658;2024-03-08T03:40:45;3.69;75.33
86242;DHT22;76911;51.784;4.658;2024-03-08T03:43:11;3.58;75.52
86242;DHT22;76911;51.784;4.658;2024-03-08T03:45:39;3.58;75.19
86242;DHT22;76911;51.784;4.658;2024-03-08T03:48:06;3.69;75.11
86242;DHT22;76911;51.784;4.658;2024-03-08T03:50:32;3.73;74.73
86242;DHT22;76911;51.784;4.658;2024-03-08T03:53:03;3.56;75.18
86242;DHT22;76911;51.784;4.658;2024-03-08T03:55:28;3.63;74.95
86242;DHT22;76911;51.784;4.658;2024-03-08T03:57:54;3.67;74.53
86242;DHT22;76911;51.784;4.658;2024-03-08T04:00:20;3.60;75.02
86242;DHT22;76911;51.784;4.658;2024-03-08T04:02:46;3.56;74.65
86242;DHT22;76911;51.784;4.658;2024-03-08T04:05:12;3.55;74.94
86242;DHT22;76911;51.784;4.658;2024-03-08T04:07:38;3.56;74.80
86242;DHT22;76911;51.784;4.658;2024-03-08T04:10:06;3.56;74.75
86242;DHT22;76911;51.784;4.658;2024-03-08T04:12:35;3.48;75.21
86242;DHT22;76911;51.784;4.658;2024-03-08T04:15:01;3.38;75.17
86242;DHT22;76911;51.784;4.658;2024-03-08T04:17:27;3.31;75.42
86242;DHT22;76911;51.784;4.658;2024-03-08T04:19:53;3.42;74.96
86242;DHT22;76911;51.784;4.658;2024-03-08T04:22:19;3.49;74.69
86242;DHT22;76911;51.784;4.658;2024-03-08T04:24:45;3.55;74.25
86242;DHT22;76911;51.784;4.658;2024-03-08T04:27:11;3.39;74.81
86242;DHT22;76911;51.784;4.658;2024-03-08T04:29:37;3.40;74.60
86242;DHT22;76911;51.784;4.658;2024-03-08T04:32:04;3.29;75.04
86242;DHT22;76911;51.784;4.658;2024-03-08T04:34:30;3.34;74.77
86242;DHT22;76911;51.784;4.658;2024-03-08T04:37:00;3.40;74.81
86242;DHT22;76911;51.784;4.658;2024-03-08T04:39:25;3.40;74.45
86242;DHT22;76911;51.784;4.658;2024-03-08T04:41:55;3.43;74.05
86242;DHT22;76911;51.784;4.658;2024-03-08T04:44:23;3.29;74.76
86242;DHT22;76911;51.784;4.658;2024-03-08T04:46:50;3.25;74.65
86242;DHT22;76911;51.784;4.658;2024-03-08T04:49:15;3.28;75.01
86242;DHT22;76911;51.784;4.658;2024-03-08T04:51:41;3.29;74.47
86242;DHT22;76911;51.784;4.658;2024-03-08T04:54:06;3.25;74.57
86242;DHT22;76911;51.784;4.658;2024-03-08T04:56:32;3.28;74.36
86242;DHT22;76911;51.784;4.658;2024-03-08T04:58:58;3.34;74.43
86242;DHT22;76911;51.784;4.658;2024-03-08T05:01:24;3.19;74.85
86242;DHT22;76911;51.784;4.658;2024-03-08T05:03:50;3.11;74.87
86242;DHT22;76911;51.784;4.658;2024-03-08T05:06:16;3.27;74.17
86242;DHT22;76911;51.784;4.658;2024-03-08T05:08:42;3.22;74.19
86242;DHT22;76911;51.784;4.658;2024-03-08T05:11:08;3.21;74.41
86242;DHT22;76911;51.784;4.658;2024-03-08T05:13:34;3.18;74.53
86242;DHT22;76911;51.784;4.658;2024-03-08T05:16:00;3.19;74.53
86242;DHT22;76911;51.784;4.658;2024-03-08T05:18:26;3.18;74.69
86242;DHT22;76911;51.784;4.658;2024-03-08T05:20:53;3.12;74.51
86242;DHT22;76911;51.784;4.658;2024-03-08T05:23:19;3.12;74.35
86242;DHT22;76911;51.784;4.658;2024-03-08T05:25:45;3.00;74.85
86242;DHT22;76911;51.784;4.658;2024-03-08T05:28:14;3.09;74.42
86242;DHT22;76911;51.784;4.658;2024-03-08T05:30:40;3.07;74.31
86242;DHT22;76911;51.784;4.658;2024-03-08T05:33:05;3.03;74.71
86242;DHT22;76911;51.784;4.658;2024-03-08T05:35:31;3.07;74.52
86242;DHT22;76911;51.784;4.658;2024-03-08T05:37:57;3.09;74.32
86242;DHT22;76911;51.784;4.658;2024-03-08T05:40:23;3.17;73.82
86242;DHT22;76911;51.784;4.658;2024-03-08T05:42:49;3.12;73.96
86242;DHT22;76911;51.784;4.658;2024-03-08T05:45:15;3.07;74.06
86242;DHT22;76911;51.784;4.658;2024-03-08T05:47:41;3.00;74.33
86242;DHT22;76911;51.784;4.658;2024-03-08T05:50:07;3.09;74.21
86242;DHT22;76911;51.784;4.658;2024-03-08T05:52:36;3.18;73.46
86242;DHT22;76911;51.784;4.658;2024-03-08T05:55:04;3.05;74.00
86242;DHT22;76911;51.784;4.658;2024-03-08T05:57:32;3.03;74.09
86242;DHT22;76911;51.784;4.658;2024-03-08T05:59:58;3.09;73.56
86242;DHT22;76911;51.784;4.658;2024-03-08T06:02:24;2.98;73.88
86242;DHT22;76911;51.784;4.658;2024-03-08T06:04:49;3.00;73.87
86242;DHT22;76911;51.784;4.658;2024-03-08T06:07:15;2.97;74.07
86242;DHT22;76911;51.784;4.658;2024-03-08T06:09:42;2.96;74.02
86242;DHT22;76911;51.784;4.658;2024-03-08T06:12:10;2.84;74.28
86242;DHT22;76911;51.784;4.658;2024-03-08T06:14:36;2.90;74.04
86242;DHT22;76911;51.784;4.658;2024-03-08T06:17:03;2.90;74.03
86242;DHT22;76911;51.784;4.658;2024-03-08T06:19:31;2.94;73.93
86242;DHT22;76911;51.784;4.658;2024-03-08T06:21:56;3.07;73.66
86242;DHT22;76911;51.784;4.658;2024-03-08T06:24:22;2.98;73.65
86242;DHT22;76911;51.784;4.658;2024-03-08T06:26:47;2.94;73.78
86242;DHT22;76911;51.784;4.658;2024-03-08T06:29:14;2.97;73.24
86242;DHT22;76911;51.784;4.658;2024-03-08T06:31:40;2.94;73.88
86242;DHT22;76911;51.784;4.658;2024-03-08T06:34:06;2.97;73.46
86242;DHT22;76911;51.784;4.658;2024-03-08T06:36:33;2.93;73.76
86242;DHT22;76911;51.784;4.658;2024-03-08T06:38:59;2.96;73.67
86242;DHT22;76911;51.784;4.658;2024-03-08T06:41:24;3.01;73.57
86242;DHT22;76911;51.784;4.658;2024-03-08T06:43:50;3.04;73.28
86242;DHT22;76911;51.784;4.658;2024-03-08T06:46:17;3.03;73.18
86242;DHT22;76911;51.784;4.658;2024-03-08T06:48:43;3.03;73.19
86242;DHT22;76911;51.784;4.658;2024-03-08T06:51:10;3.05;72.99
86242;DHT22;76911;51.784;4.658;2024-03-08T06:53:36;3.12;72.93
86242;DHT22;76911;51.784;4.658;2024-03-08T06:56:02;3.12;73.02
86242;DHT22;76911;51.784;4.658;2024-03-08T06:58:28;3.17;72.99
86242;DHT22;76911;51.784;4.658;2024-03-08T07:00:54;3.15;73.02
86242;DHT22;76911;51.784;4.658;2024-03-08T07:03:23;3.19;73.01
86242;DHT22;76911;51.784;4.658;2024-03-08T07:05:49;3.24;72.86
86242;DHT22;76911;51.784;4.658;2024-03-08T07:08:15;3.21;72.98
86242;DHT22;76911;51.784;4.658;2024-03-08T07:10:41;3.40;72.27
86242;DHT22;76911;51.784;4.658;2024-03-08T07:13:08;3.38;72.54
86242;DHT22;76911;51.784;4.658;2024-03-08T07:15:34;3.40;72.73
86242;DHT22;76911;51.784;4.658;2024-03-08T07:18:00;3.39;72.68
86242;DHT22;76911;51.784;4.658;2024-03-08T07:20:26;3.34;72.82
86242;DHT22;76911;51.784;4.658;2024-03-08T07:22:51;3.39;72.66
86242;DHT22;76911;51.784;4.658;2024-03-08T07:25:18;3.35;72.89
86242;DHT22;76911;51.784;4.658;2024-03-08T07:27:48;3.52;72.28
86242;DHT22;76911;51.784;4.658;2024-03-08T07:30:13;3.52;72.22
86242;DHT22;76911;51.784;4.658;2024-03-08T07:32:59;3.63;72.45
86242;DHT22;76911;51.784;4.658;2024-03-08T07:35:25;3.59;72.16
86242;DHT22;76911;51.784;4.658;2024-03-08T07:37:51;3.58;72.20
86242;DHT22;76911;51.784;4.658;2024-03-08T07:40:18;3.69;71.48
86242;DHT22;76911;51.784;4.658;2024-03-08T07:42:43;3.70;71.91
86242;DHT22;76911;51.784;4.658;2024-03-08T07:45:09;3.77;71.32
86242;DHT22;76911;51.784;4.658;2024-03-08T07:47:35;3.79;71.57
86242;DHT22;76911;51.784;4.658;2024-03-08T07:50:01;3.86;71.68
86242;DHT22;76911;51.784;4.658;2024-03-08T07:52:27;3.96;71.23
86242;DHT22;76911;51.784;4.658;2024-03-08T07:54:53;3.93;71.19
86242;DHT22;76911;51.784;4.658;2024-03-08T07:57:19;3.96;70.79
86242;DHT22;76911;51.784;4.658;2024-03-08T07:59:45;3.85;70.91
86242;DHT22;76911;51.784;4.658;2024-03-08T08:02:11;4.07;70.73
86242;DHT22;76911;51.784;4.658;2024-03-08T08:04:36;4.01;71.05
86242;DHT22;76911;51.784;4.658;2024-03-08T08:07:04;4.17;70.88
86242;DHT22;76911;51.784;4.658;2024-03-08T08:09:29;4.27;70.08
86242;DHT22;76911;51.784;4.658;2024-03-08T08:12:00;4.30;69.90
86242;DHT22;76911;51.784;4.658;2024-03-08T08:14:28;4.34;71.05
86242;DHT22;76911;51.784;4.658;2024-03-08T08:16:54;4.35;70.24
86242;DHT22;76911;51.784;4.658;2024-03-08T08:19:22;4.28;69.85
86242;DHT22;76911;51.784;4.658;2024-03-08T08:21:48;4.37;69.73
86242;DHT22;76911;51.784;4.658;2024-03-08T08:24:14;4.42;69.30
86242;DHT22;76911;51.784;4.658;2024-03-08T08:26:40;4.46;69.59
86242;DHT22;76911;51.784;4.658;2024-03-08T08:29:06;4.51;69.36
86242;DHT22;76911;51.784;4.658;2024-03-08T08:31:32;4.58;68.82
86242;DHT22;76911;51.784;4.658;2024-03-08T08:33:58;4.46;69.12
86242;DHT22;76911;51.784;4.658;2024-03-08T08:36:25;4.58;69.39
86242;DHT22;76911;51.784;4.658;2024-03-08T08:38:51;4.73;68.67
86242;DHT22;76911;51.784;4.658;2024-03-08T08:41:19;4.71;68.93
86242;DHT22;76911;51.784;4.658;2024-03-08T08:43:47;4.79;69.34
86242;DHT22;76911;51.784;4.658;2024-03-08T08:46:12;4.93;68.76
86242;DHT22;76911;51.784;4.658;2024-03-08T08:48:41;4.76;68.91
86242;DHT22;76911;51.784;4.658;2024-03-08T08:51:09;4.93;68.02
86242;DHT22;76911;51.784;4.658;2024-03-08T08:53:41;4.96;69.02
86242;DHT22;76911;51.784;4.658;2024-03-08T08:56:12;5.12;67.83
86242;DHT22;76911;51.784;4.658;2024-03-08T08:58:44;5.14;68.73
86242;DHT22;76911;51.784;4.658;2024-03-08T09:01:10;5.26;67.77
86242;DHT22;76911;51.784;4.658;2024-03-08T09:03:37;5.30;67.33
86242;DHT22;76911;51.784;4.658;2024-03-08T09:06:07;5.24;68.19
86242;DHT22;76911;51.784;4.658;2024-03-08T09:08:36;5.19;68.34
86242;DHT22;76911;51.784;4.658;2024-03-08T09:11:03;5.37;67.37
86242;DHT22;76911;51.784;4.658;2024-03-08T09:13:29;5.41;67.91
86242;DHT22;76911;51.784;4.658;2024-03-08T09:15:55;5.43;67.94
86242;DHT22;76911;51.784;4.658;2024-03-08T09:18:20;5.54;67.52
86242;DHT22;76911;51.784;4.658;2024-03-08T09:20:46;5.59;67.35
86242;DHT22;76911;51.784;4.658;2024-03-08T09:23:12;5.55;67.48
86242;DHT22;76911;51.784;4.658;2024-03-08T09:25:38;5.65;67.50
86242;DHT22;76911;51.784;4.658;2024-03-08T09:28:03;5.81;66.56
86242;DHT22;76911;51.784;4.658;2024-03-08T09:30:31;5.73;67.47
86242;DHT22;76911;51.784;4.658;2024-03-08T09:32:56;5.76;67.11
86242;DHT22;76911;51.784;4.658;2024-03-08T09:35:22;5.93;67.14
86242;DHT22;76911;51.784;4.658;2024-03-08T09:37:47;5.93;66.97
86242;DHT22;76911;51.784;4.658;2024-03-08T09:40:17;5.89;66.54
86242;DHT22;76911;51.784;4.658;2024-03-08T09:42:45;5.95;66.83
86242;DHT22;76911;51.784;4.658;2024-03-08T09:45:12;6.19;66.56
86242;DHT22;76911;51.784;4.658;2024-03-08T09:47:42;6.34;66.38
86242;DHT22;76911;51.784;4.658;2024-03-08T09:50:08;6.26;66.36
86242;DHT22;76911;51.784;4.658;2024-03-08T09:52:40;6.48;66.92
86242;DHT22;76911;51.784;4.658;2024-03-08T09:55:07;6.68;65.80
86242;DHT22;76911;51.784;4.658;2024-03-08T09:57:33;6.55;65.88
86242;DHT22;76911;51.784;4.658;2024-03-08T10:00:02;6.55;65.13
86242;DHT22;76911;51.784;4.658;2024-03-08T10:02:33;6.60;64.98
86242;DHT22;76911;51.784;4.658;2024-03-08T10:05:01;6.58;65.54
86242;DHT22;76911;51.784;4.658;2024-03-08T10:07:28;6.78;64.60
86242;DHT22;76911;51.784;4.658;2024-03-08T10:09:54;6.87;64.44
86242;DHT22;76911;51.784;4.658;2024-03-08T10:12:20;6.99;65.20
86242;DHT22;76911;51.784;4.658;2024-03-08T10:14:45;7.03;64.06
86242;DHT22;76911;51.784;4.658;2024-03-08T10:17:12;7.23;64.75
86242;DHT22;76911;51.784;4.658;2024-03-08T10:19:37;7.31;63.25
86242;DHT22;76911;51.784;4.658;2024-03-08T10:22:04;7.19;64.07
86242;DHT22;76911;51.784;4.658;2024-03-08T10:24:31;7.40;64.10
86242;DHT22;76911;51.784;4.658;2024-03-08T10:27:02;7.54;63.27
86242;DHT22;76911;51.784;4.658;2024-03-08T10:29:31;7.73;63.16
86242;DHT22;76911;51.784;4.658;2024-03-08T10:31:56;7.60;62.28
86242;DHT22;76911;51.784;4.658;2024-03-08T10:34:23;7.74;62.22
86242;DHT22;76911;51.784;4.658;2024-03-08T10:36:52;7.74;62.39
86242;DHT22;76911;51.784;4.658;2024-03-08T10:39:22;7.75;62.04
86242;DHT22;76911;51.784;4.658;2024-03-08T10:42:11;7.61;62.00
86242;DHT22;76911;51.784;4.658;2024-03-08T10:44:51;7.68;61.89
86242;DHT22;76911;51.784;4.658;2024-03-08T10:47:27;7.78;62.63
86242;DHT22;76911;51.784;4.658;2024-03-08T10:50:11;7.88;61.55
86242;DHT22;76911;51.784;4.658;2024-03-08T10:52:43;7.99;61.58
86242;DHT22;76911;51.784;4.658;2024-03-08T10:55:10;8.09;63.31
86242;DHT22;76911;51.784;4.658;2024-03-08T10:57:40;8.16;62.19
86242;DHT22;76911;51.784;4.658;2024-03-08T11:00:08;8.46;60.76
86242;DHT22;76911;51.784;4.658;2024-03-08T11:02:38;8.39;61.45
86242;DHT22;76911;51.784;4.658;2024-03-08T11:05:03;8.21;61.60
86242;DHT22;76911;51.784;4.658;2024-03-08T11:07:34;8.53;60.60
86242;DHT22;76911;51.784;4.658;2024-03-08T11:10:03;8.54;61.01
86242;DHT22;76911;51.784;4.658;2024-03-08T11:12:39;8.68;60.55
86242;DHT22;76911;51.784;4.658;2024-03-08T11:15:13;8.80;60.16
86242;DHT22;76911;51.784;4.658;2024-03-08T11:20:16;9.15;58.94
86242;DHT22;76911;51.784;4.658;2024-03-08T11:22:48;9.11;57.94
86242;DHT22;76911;51.784;4.658;2024-03-08T11:25:38;9.01;58.57
86242;DHT22;76911;51.784;4.658;2024-03-08T11:28:12;9.18;59.01
86242;DHT22;76911;51.784;4.658;2024-03-08T11:33:31;9.50;57.65
86242;DHT22;76911;51.784;4.658;2024-03-08T11:36:23;9.42;58.29
86242;DHT22;76911;51.784;4.658;2024-03-08T11:38:51;9.45;57.12
86242;DHT22;76911;51.784;4.658;2024-03-08T11:41:23;9.77;56.20
86242;DHT22;76911;51.784;4.658;2024-03-08T11:44:01;9.76;57.76
86242;DHT22;76911;51.784;4.658;2024-03-08T11:46:27;10.04;55.51
86242;DHT22;76911;51.784;4.658;2024-03-08T11:48:54;10.44;54.58
86242;DHT22;76911;51.784;4.658;2024-03-08T11:51:21;10.69;54.11
86242;DHT22;76911;51.784;4.658;2024-03-08T11:53:49;10.95;53.07
86242;DHT22;76911;51.784;4.658;2024-03-08T11:56:16;10.89;52.45
86242;DHT22;76911;51.784;4.658;2024-03-08T11:58:52;11.06;52.67
86242;DHT22;76911;51.784;4.658;2024-03-08T12:01:18;11.06;51.86
86242;DHT22;76911;51.784;4.658;2024-03-08T12:04:01;10.96;52.06
86242;DHT22;76911;51.784;4.658;2024-03-08T12:06:37;10.66;52.65
86242;DHT22;76911;51.784;4.658;2024-03-08T12:09:09;10.71;53.39
86242;DHT22;76911;51.784;4.658;2024-03-08T12:11:36;11.12;53.32
86242;DHT22;76911;51.784;4.658;2024-03-08T12:14:03;11.17;52.04
86242;DHT22;76911;51.784;4.658;2024-03-08T12:16:28;11.14;52.42
86242;DHT22;76911;51.784;4.658;2024-03-08T12:18:54;11.12;53.04
86242;DHT22;76911;51.784;4.658;2024-03-08T12:21:20;11.31;52.61
86242;DHT22;76911;51.784;4.658;2024-03-08T12:24:08;11.26;51.43
86242;DHT22;76911;51.784;4.658;2024-03-08T12:26:39;11.58;50.46
86242;DHT22;76911;51.784;4.658;2024-03-08T12:29:40;11.88;50.46
86242;DHT22;76911;51.784;4.658;2024-03-08T12:32:06;11.78;50.81
86242;DHT22;76911;51.784;4.658;2024-03-08T12:34:32;11.75;51.17
86242;DHT22;76911;51.784;4.658;2024-03-08T12:36:58;11.44;50.32
86242;DHT22;76911;51.784;4.658;2024-03-08T12:39:24;11.30;51.37
86242;DHT22;76911;51.784;4.658;2024-03-08T12:41:53;11.51;51.62
86242;DHT22;76911;51.784;4.658;2024-03-08T12:44:20;11.78;51.24
86242;DHT22;76911;51.784;4.658;2024-03-08T12:46:50;11.72;51.39
86242;DHT22;76911;51.784;4.658;2024-03-08T12:49:17;11.92;50.73
86242;DHT22;76911;51.784;4.658;2024-03-08T12:51:48;11.75;52.37
86242;DHT22;76911;51.784;4.658;2024-03-08T12:54:13;11.95;50.66
86242;DHT22;76911;51.784;4.658;2024-03-08T12:56:40;11.98;50.27
86242;DHT22;76911;51.784;4.658;2024-03-08T12:59:07;12.27;49.43
86242;DHT22;76911;51.784;4.658;2024-03-08T13:01:34;12.83;49.15
86242;DHT22;76911;51.784;4.658;2024-03-08T13:04:03;12.84;49.46
86242;DHT22;76911;51.784;4.658;2024-03-08T13:06:30;12.47;48.43
86242;DHT22;76911;51.784;4.658;2024-03-08T13:08:57;12.33;48.80
86242;DHT22;76911;51.784;4.658;2024-03-08T13:11:24;12.48;47.95
86242;DHT22;76911;51.784;4.658;2024-03-08T13:13:53;12.44;50.86
86242;DHT22;76911;51.784;4.658;2024-03-08T13:16:19;12.46;50.72
86242;DHT22;76911;51.784;4.658;2024-03-08T13:18:46;11.77;51.37
86242;DHT22;76911;51.784;4.658;2024-03-08T13:21:15;11.45;51.66
86242;DHT22;76911;51.784;4.658;2024-03-08T13:23:43;11.71;53.05
86242;DHT22;76911;51.784;4.658;2024-03-08T13:26:15;11.86;52.21
86242;DHT22;76911;51.784;4.658;2024-03-08T13:28:48;12.09;51.60
86242;DHT22;76911;51.784;4.658;2024-03-08T13:31:21;11.86;51.72
86242;DHT22;76911;51.784;4.658;2024-03-08T13:33:47;12.05;52.12
86242;DHT22;76911;51.784;4.658;2024-03-08T13:36:14;12.09;51.63
86242;DHT22;76911;51.784;4.658;2024-03-08T13:38:47;12.32;51.98
86242;DHT22;76911;51.784;4.658;2024-03-08T13:41:16;12.20;51.30
86242;DHT22;76911;51.784;4.658;2024-03-08T13:43:47;12.03;51.21
86242;DHT22;76911;51.784;4.658;2024-03-08T13:46:15;11.93;52.28
86242;DHT22;76911;51.784;4.658;2024-03-08T13:48:41;12.05;51.98
86242;DHT22;76911;51.784;4.658;2024-03-08T13:51:07;12.36;52.27
86242;DHT22;76911;51.784;4.658;2024-03-08T13:53:35;12.12;52.32
86242;DHT22;76911;51.784;4.658;2024-03-08T13:56:05;12.22;52.28
86242;DHT22;76911;51.784;4.658;2024-03-08T13:58:36;12.47;50.60
86242;DHT22;76911;51.784;4.658;2024-03-08T14:01:01;12.60;50.85
86242;DHT22;76911;51.784;4.658;2024-03-08T14:03:28;12.83;51.44
86242;DHT22;76911;51.784;4.658;2024-03-08T14:05:54;12.65;50.53
86242;DHT22;76911;51.784;4.658;2024-03-08T14:08:20;12.43;50.67
86242;DHT22;76911;51.784;4.658;2024-03-08T14:10:47;12.41;51.15
86242;DHT22;76911;51.784;4.658;2024-03-08T14:13:14;12.46;50.88
86242;DHT22;76911;51.784;4.658;2024-03-08T14:15:41;12.56;50.55
86242;DHT22;76911;51.784;4.658;2024-03-08T14:18:07;12.40;51.18
86242;DHT22;76911;51.784;4.658;2024-03-08T14:20:33;12.06;51.52
86242;DHT22;76911;51.784;4.658;2024-03-08T14:22:59;12.23;52.31
86242;DHT22;76911;51.784;4.658;2024-03-08T14:25:25;12.46;51.41
86242;DHT22;76911;51.784;4.658;2024-03-08T14:27:52;12.23;51.70
86242;DHT22;76911;51.784;4.658;2024-03-08T14:30:24;11.85;52.75
86242;DHT22;76911;51.784;4.658;2024-03-08T14:33:04;11.78;52.11
86242;DHT22;76911;51.784;4.658;2024-03-08T14:35:37;11.71;52.83
86242;DHT22;76911;51.784;4.658;2024-03-08T14:38:03;11.57;53.63
86242;DHT22;76911;51.784;4.658;2024-03-08T14:40:29;11.74;52.98
86242;DHT22;76911;51.784;4.658;2024-03-08T14:42:56;11.61;54.08
86242;DHT22;76911;51.784;4.658;2024-03-08T14:45:22;11.50;53.34
86242;DHT22;76911;51.784;4.658;2024-03-08T14:47:50;11.58;53.03
86242;DHT22;76911;51.784;4.658;2024-03-08T14:50:20;11.45;53.49
86242;DHT22;76911;51.784;4.658;2024-03-08T14:52:46;11.52;53.53
86242;DHT22;76911;51.784;4.658;2024-03-08T14:55:20;11.47;53.43
86242;DHT22;76911;51.784;4.658;2024-03-08T14:57:48;11.44;53.80
86242;DHT22;76911;51.784;4.658;2024-03-08T15:00:18;11.44;52.61
86242;DHT22;76911;51.784;4.658;2024-03-08T15:02:59;11.35;53.75
86242;DHT22;76911;51.784;4.658;2024-03-08T15:05:25;11.47;53.39
86242;DHT22;76911;51.784;4.658;2024-03-08T15:07:57;11.30;53.16
86242;DHT22;76911;51.784;4.658;2024-03-08T15:10:26;11.27;54.04
86242;DHT22;76911;51.784;4.658;2024-03-08T15:12:51;11.41;53.97
86242;DHT22;76911;51.784;4.658;2024-03-08T15:15:21;11.35;53.82
86242;DHT22;76911;51.784;4.658;2024-03-08T15:17:48;11.28;54.56
86242;DHT22;76911;51.784;4.658;2024-03-08T15:20:14;11.37;53.83
86242;DHT22;76911;51.784;4.658;2024-03-08T15:22:50;11.23;53.88
86242;DHT22;76911;51.784;4.658;2024-03-08T15:25:16;11.12;54.40
86242;DHT22;76911;51.784;4.658;2024-03-08T15:27:54;11.24;54.81
86242;DHT22;76911;51.784;4.658;2024-03-08T15:30:21;11.12;53.97
86242;DHT22;76911;51.784;4.658;2024-03-08T15:32:53;11.16;54.64
86242;DHT22;76911;51.784;4.658;2024-03-08T15:35:25;11.13;54.73
86242;DHT22;76911;51.784;4.658;2024-03-08T15:37:52;11.04;54.82
86242;DHT22;76911;51.784;4.658;2024-03-08T15:40:23;10.91;55.09
86242;DHT22;76911;51.784;4.658;2024-03-08T15:42:55;10.97;55.21
86242;DHT22;76911;51.784;4.658;2024-03-08T15:45:21;10.93;54.88
86242;DHT22;76911;51.784;4.658;2024-03-08T15:47:49;10.86;55.67
86242;DHT22;76911;51.784;4.658;2024-03-08T15:50:15;10.71;55.47